sensor_id;sensor_type;location;lat;lon;timestamp;pressure;altitude;pressure_sealevel;temperature;humidity
18678;BME280;9469;51.114;13.914;2022-10-22T00:03:43;98417.69;;;10.47;100.00
18678;BME280;9469;51.114;13.914;2022-10-22T00:08:49;98430.75;;;10.57;100.00
18678;BME280;9469;51.114;13.914;2022-10-22T00:13:54;98435.03;;;10.75;100.00
18678;BME280;9469;51.114;13.914;2022-10-22T00:19:01;98407.94;;;10.65;100.00
18678;BME280;9469;51.114;13.914;2022-10-22T00:24:06;98406.97;;;10.61;100.00
18678;BME280;9469;51.114;13.914;2022-10-22T00:29:11;98403.13;;;10.45;100.00
18678;BME280;9469;51.114;13.914;2022-10-22T00:34:22;98408.28;;;10.41;100.00
18678;BME280;9469;51.114;13.914;2022-10-22T00:39:28;98395.81;;;10.50;100.00
18678;BME280;9469;51.114;13.914;2022-10-22T00:44:58;98391.56;;;10.49;100.00
18678;BME280;9469;51.114;13.914;2022-10-22T00:50:09;98393.03;;;10.55;100.00
18678;BME280;9469;51.114;13.914;2022-10-22T00:55:16;98400.38;;;10.58;100.00
18678;BME280;9469;51.114;13.914;2022-10-22T01:00:22;98399.31;;;10.59;100.00
18678;BME280;9469;51.114;13.914;2022-10-22T01:05:32;98387.06;;;10.58;100.00
18678;BME280;9469;51.114;13.914;2022-10-22T01:10:50;98390.09;;;10.65;100.00
18678;BME280;9469;51.114;13.914;2022-10-22T01:15:59;98395.25;;;10.62;100.00
18678;BME280;9469;51.114;13.914;2022-10-22T01:21:16;98391.63;;;10.58;100.00
18678;BME280;9469;51.114;13.914;2022-10-22T01:26:27;98393.50;;;10.57;100.00
18678;BME280;9469;51.114;13.914;2022-10-22T01:31:40;98388.19;;;10.57;100.00
18678;BME280;9469;51.114;13.914;2022-10-22T01:36:49;98396.50;;;10.64;100.00
18678;BME280;9469;51.114;13.914;2022-10-22T01:41:55;98389.31;;;10.65;100.00
18678;BME280;9469;51.114;13.914;2022-10-22T01:47:14;98395.28;;;10.70;100.00
18678;BME280;9469;51.114;13.914;2022-10-22T01:52:29;98394.94;;;10.72;100.00
18678;BME280;9469;51.114;13.914;2022-10-22T01:57:42;98389.94;;;10.70;100.00
18678;BME280;9469;51.114;13.914;2022-10-22T02:02:57;98393.09;;;10.72;100.00
18678;BME280;9469;51.114;13.914;2022-10-22T02:08:08;98384.63;;;10.70;100.00
18678;BME280;9469;51.114;13.914;2022-10-22T02:13:16;98392.94;;;10.77;100.00
18678;BME280;9469;51.114;13.914;2022-10-22T02:18:27;98388.72;;;10.76;100.00
18678;BME280;9469;51.114;13.914;2022-10-22T02:23:38;98370.41;;;10.75;100.00
18678;BME280;9469;51.114;13.914;2022-10-22T02:28:49;98374.31;;;10.77;100.00
18678;BME280;9469;51.114;13.914;2022-10-22T02:34:02;98376.84;;;10.82;100.00
18678;BME280;9469;51.114;13.914;2022-10-22T02:39:10;98369.00;;;10.77;100.00
18678;BME280;9469;51.114;13.914;2022-10-22T02:44:36;98377.00;;;10.86;100.00
18678;BME280;9469;51.114;13.914;2022-10-22T02:49:44;98372.13;;;10.79;100.00
18678;BME280;9469;51.114;13.914;2022-10-22T02:54:49;98382.00;;;10.79;100.00
18678;BME280;9469;51.114;13.914;2022-10-22T02:59:54;98369.47;;;10.79;100.00
18678;BME280;9469;51.114;13.914;2022-10-22T03:05:01;98372.31;;;10.83;100.00
18678;BME280;9469;51.114;13.914;2022-10-22T03:10:07;98388.88;;;10.80;100.00
18678;BME280;9469;51.114;13.914;2022-10-22T03:15:13;98383.88;;;10.78;100.00
18678;BME280;9469;51.114;13.914;2022-10-22T03:20:20;98386.25;;;10.89;100.00
18678;BME280;9469;51.114;13.914;2022-10-22T03:25:25;98386.56;;;10.87;100.00
18678;BME280;9469;51.114;13.914;2022-10-22T03:30:31;98381.25;;;10.96;100.00
18678;BME280;9469;51.114;13.914;2022-10-22T03:35:42;98380.00;;;10.85;100.00
18678;BME280;9469;51.114;13.914;2022-10-22T03:40:47;98374.34;;;10.95;100.00
18678;BME280;9469;51.114;13.914;2022-10-22T03:45:53;98392.38;;;10.89;100.00
18678;BME280;9469;51.114;13.914;2022-10-22T03:51:00;98391.31;;;10.99;100.00
18678;BME280;9469;51.114;13.914;2022-10-22T03:56:07;98401.28;;;10.93;100.00
18678;BME280;9469;51.114;13.914;2022-10-22T04:01:13;98398.50;;;11.07;100.00
18678;BME280;9469;51.114;13.914;2022-10-22T04:06:21;98408.03;;;10.99;100.00
18678;BME280;9469;51.114;13.914;2022-10-22T04:11:26;98401.44;;;10.88;100.00
18678;BME280;9469;51.114;13.914;2022-10-22T04:16:31;98392.50;;;10.84;100.00
18678;BME280;9469;51.114;13.914;2022-10-22T04:21:38;98397.81;;;10.84;100.00
18678;BME280;9469;51.114;13.914;2022-10-22T04:26:43;98412.03;;;10.79;100.00
18678;BME280;9469;51.114;13.914;2022-10-22T04:31:48;98411.44;;;10.82;100.00
18678;BME280;9469;51.114;13.914;2022-10-22T04:36:56;98407.84;;;10.78;100.00
18678;BME280;9469;51.114;13.914;2022-10-22T04:42:01;98408.16;;;10.86;100.00
18678;BME280;9469;51.114;13.914;2022-10-22T04:47:06;98405.00;;;10.83;100.00
18678;BME280;9469;51.114;13.914;2022-10-22T04:52:13;98400.16;;;10.86;100.00
18678;BME280;9469;51.114;13.914;2022-10-22T04:57:19;98416.63;;;10.88;100.00
18678;BME280;9469;51.114;13.914;2022-10-22T05:02:24;98401.59;;;10.83;100.00
18678;BME280;9469;51.114;13.914;2022-10-22T05:07:32;98388.56;;;10.81;100.00
18678;BME280;9469;51.114;13.914;2022-10-22T05:12:36;98395.63;;;10.77;100.00
18678;BME280;9469;51.114;13.914;2022-10-22T05:17:44;98392.81;;;10.82;100.00
18678;BME280;9469;51.114;13.914;2022-10-22T05:22:51;98403.28;;;10.79;100.00
18678;BME280;9469;51.114;13.914;2022-10-22T05:27:56;98414.25;;;10.86;100.00
18678;BME280;9469;51.114;13.914;2022-10-22T05:33:04;98421.63;;;10.80;100.00
18678;BME280;9469;51.114;13.914;2022-10-22T05:38:12;98425.56;;;10.92;100.00
18678;BME280;9469;51.114;13.914;2022-10-22T05:43:16;98432.75;;;10.91;100.00
18678;BME280;9469;51.114;13.914;2022-10-22T05:48:21;98435.13;;;11.01;100.00
18678;BME280;9469;51.114;13.914;2022-10-22T05:53:29;98434.97;;;10.98;100.00
18678;BME280;9469;51.114;13.914;2022-10-22T05:58:35;98442.00;;;10.94;100.00
18678;BME280;9469;51.114;13.914;2022-10-22T06:03:41;98450.78;;;11.03;100.00
18678;BME280;9469;51.114;13.914;2022-10-22T06:08:52;98460.84;;;11.06;100.00
18678;BME280;9469;51.114;13.914;2022-10-22T06:13:58;98456.25;;;10.98;100.00
18678;BME280;9469;51.114;13.914;2022-10-22T06:19:03;98472.81;;;10.95;100.00
18678;BME280;9469;51.114;13.914;2022-10-22T06:24:11;98469.56;;;11.06;100.00
18678;BME280;9469;51.114;13.914;2022-10-22T06:29:16;98473.63;;;10.95;100.00
18678;BME280;9469;51.114;13.914;2022-10-22T06:34:21;98465.19;;;11.02;100.00
18678;BME280;9469;51.114;13.914;2022-10-22T06:39:29;98476.63;;;11.02;100.00
18678;BME280;9469;51.114;13.914;2022-10-22T06:44:34;98478.56;;;11.19;100.00
18678;BME280;9469;51.114;13.914;2022-10-22T06:49:39;98485.31;;;11.25;100.00
18678;BME280;9469;51.114;13.914;2022-10-22T06:54:46;98494.66;;;11.14;100.00
18678;BME280;9469;51.114;13.914;2022-10-22T06:59:51;98502.06;;;11.25;100.00
18678;BME280;9469;51.114;13.914;2022-10-22T07:04:56;98497.81;;;11.24;100.00
18678;BME280;9469;51.114;13.914;2022-10-22T07:10:04;98508.19;;;11.26;100.00
18678;BME280;9469;51.114;13.914;2022-10-22T07:15:09;98520.28;;;11.40;100.00
18678;BME280;9469;51.114;13.914;2022-10-22T07:20:15;98526.06;;;11.42;100.00
18678;BME280;9469;51.114;13.914;2022-10-22T07:25:24;98518.72;;;11.39;100.00
18678;BME280;9469;51.114;13.914;2022-10-22T07:30:29;98538.94;;;11.49;100.00
18678;BME280;9469;51.114;13.914;2022-10-22T07:35:35;98548.38;;;11.55;100.00
18678;BME280;9469;51.114;13.914;2022-10-22T07:40:43;98545.06;;;11.58;100.00
18678;BME280;9469;51.114;13.914;2022-10-22T07:45:48;98548.84;;;11.66;100.00
18678;BME280;9469;51.114;13.914;2022-10-22T07:50:53;98554.97;;;11.66;100.00
18678;BME280;9469;51.114;13.914;2022-10-22T07:56:01;98567.69;;;11.69;100.00
18678;BME280;9469;51.114;13.914;2022-10-22T08:01:06;98573.53;;;11.88;100.00
18678;BME280;9469;51.114;13.914;2022-10-22T08:06:12;98569.47;;;11.99;100.00
18678;BME280;9469;51.114;13.914;2022-10-22T08:11:21;98581.09;;;12.03;100.00
18678;BME280;9469;51.114;13.914;2022-10-22T08:16:26;98585.28;;;11.79;100.00
18678;BME280;9469;51.114;13.914;2022-10-22T08:21:31;98593.34;;;12.04;100.00
18678;BME280;9469;51.114;13.914;2022-10-22T08:26:41;98597.91;;;12.21;100.00
18678;BME280;9469;51.114;13.914;2022-10-22T08:31:46;98601.22;;;12.44;100.00
18678;BME280;9469;51.114;13.914;2022-10-22T08:36:51;98601.66;;;12.54;100.00
18678;BME280;9469;51.114;13.914;2022-10-22T08:42:04;98596.78;;;12.65;100.00
18678;BME280;9469;51.114;13.914;2022-10-22T08:47:21;98598.97;;;12.80;100.00
18678;BME280;9469;51.114;13.914;2022-10-22T08:52:32;98606.94;;;12.97;100.00
18678;BME280;9469;51.114;13.914;2022-10-22T08:57:46;98612.47;;;13.09;100.00
18678;BME280;9469;51.114;13.914;2022-10-22T09:03:03;98618.06;;;13.16;100.00
18678;BME280;9469;51.114;13.914;2022-10-22T09:08:10;98618.19;;;13.28;100.00
18678;BME280;9469;51.114;13.914;2022-10-22T09:13:20;98620.53;;;13.38;100.00
18678;BME280;9469;51.114;13.914;2022-10-22T09:18:34;98611.69;;;13.46;100.00
18678;BME280;9469;51.114;13.914;2022-10-22T09:23:55;98613.22;;;13.56;100.00
18678;BME280;9469;51.114;13.914;2022-10-22T09:29:06;98618.53;;;13.64;100.00
18678;BME280;9469;51.114;13.914;2022-10-22T09:34:13;98618.75;;;13.80;100.00
18678;BME280;9469;51.114;13.914;2022-10-22T09:39:24;98617.56;;;13.98;100.00
18678;BME280;9469;51.114;13.914;2022-10-22T09:44:35;98612.25;;;14.19;100.00
18678;BME280;9469;51.114;13.914;2022-10-22T09:49:47;98611.50;;;14.39;100.00
18678;BME280;9469;51.114;13.914;2022-10-22T09:54:53;98610.22;;;14.78;100.00
18678;BME280;9469;51.114;13.914;2022-10-22T10:00:00;98613.59;;;15.20;100.00
18678;BME280;9469;51.114;13.914;2022-10-22T10:05:17;98601.03;;;15.81;100.00
18678;BME280;9469;51.114;13.914;2022-10-22T10:10:33;98613.63;;;16.04;100.00
18678;BME280;9469;51.114;13.914;2022-10-22T10:15:49;98612.63;;;17.32;100.00
18678;BME280;9469;51.114;13.914;2022-10-22T10:21:03;98612.06;;;17.10;100.00
18678;BME280;9469;51.114;13.914;2022-10-22T10:26:15;98620.59;;;17.28;100.00
18678;BME280;9469;51.114;13.914;2022-10-22T10:31:33;98611.75;;;17.43;100.00
18678;BME280;9469;51.114;13.914;2022-10-22T10:36:49;98620.81;;;18.17;100.00
18678;BME280;9469;51.114;13.914;2022-10-22T10:42:00;98618.00;;;17.16;100.00
18678;BME280;9469;51.114;13.914;2022-10-22T10:47:21;98619.03;;;17.11;100.00
18678;BME280;9469;51.114;13.914;2022-10-22T10:52:35;98620.78;;;17.35;100.00
18678;BME280;9469;51.114;13.914;2022-10-22T10:57:47;98631.03;;;17.45;100.00
18678;BME280;9469;51.114;13.914;2022-10-22T11:03:14;98619.28;;;19.11;100.00
18678;BME280;9469;51.114;13.914;2022-10-22T11:08:25;98622.19;;;18.61;100.00
18678;BME280;9469;51.114;13.914;2022-10-22T11:13:35;98615.88;;;18.38;100.00
18678;BME280;9469;51.114;13.914;2022-10-22T11:18:48;98619.41;;;17.88;100.00
18678;BME280;9469;51.114;13.914;2022-10-22T11:24:04;98623.88;;;17.37;100.00
18678;BME280;9469;51.114;13.914;2022-10-22T11:29:16;98639.03;;;16.71;100.00
18678;BME280;9469;51.114;13.914;2022-10-22T11:34:33;98648.03;;;16.38;100.00
18678;BME280;9469;51.114;13.914;2022-10-22T11:39:44;98642.44;;;16.31;100.00
18678;BME280;9469;51.114;13.914;2022-10-22T11:45:01;98643.94;;;16.05;100.00
18678;BME280;9469;51.114;13.914;2022-10-22T11:50:42;98651.88;;;16.01;100.00
18678;BME280;9469;51.114;13.914;2022-10-22T11:55:49;98648.97;;;15.70;100.00
18678;BME280;9469;51.114;13.914;2022-10-22T12:00:57;98650.53;;;15.71;100.00
18678;BME280;9469;51.114;13.914;2022-10-22T12:06:24;98641.34;;;16.32;100.00
18678;BME280;9469;51.114;13.914;2022-10-22T12:11:35;98647.28;;;16.26;100.00
18678;BME280;9469;51.114;13.914;2022-10-22T12:16:44;98646.25;;;16.30;100.00
18678;BME280;9469;51.114;13.914;2022-10-22T12:22:10;98651.34;;;16.47;100.00
18678;BME280;9469;51.114;13.914;2022-10-22T12:27:19;98655.00;;;16.67;100.00
18678;BME280;9469;51.114;13.914;2022-10-22T12:32:32;98641.22;;;18.18;100.00
18678;BME280;9469;51.114;13.914;2022-10-22T12:37:39;98635.28;;;18.63;100.00
18678;BME280;9469;51.114;13.914;2022-10-22T12:42:53;98636.63;;;18.91;100.00
18678;BME280;9469;51.114;13.914;2022-10-22T12:48:00;98633.66;;;18.58;100.00
18678;BME280;9469;51.114;13.914;2022-10-22T12:53:12;98625.34;;;19.47;100.00
18678;BME280;9469;51.114;13.914;2022-10-22T12:58:21;98640.75;;;19.46;100.00
18678;BME280;9469;51.114;13.914;2022-10-22T13:03:30;98639.16;;;19.03;100.00
18678;BME280;9469;51.114;13.914;2022-10-22T13:08:41;98639.19;;;19.26;100.00
18678;BME280;9469;51.114;13.914;2022-10-22T13:13:46;98642.19;;;19.21;100.00
18678;BME280;9469;51.114;13.914;2022-10-22T13:18:52;98644.47;;;19.00;100.00
18678;BME280;9469;51.114;13.914;2022-10-22T13:24:01;98646.94;;;19.27;100.00
18678;BME280;9469;51.114;13.914;2022-10-22T13:29:09;98646.06;;;19.43;100.00
18678;BME280;9469;51.114;13.914;2022-10-22T13:34:17;98652.25;;;19.43;100.00
18678;BME280;9469;51.114;13.914;2022-10-22T13:39:25;98650.28;;;19.63;100.00
18678;BME280;9469;51.114;13.914;2022-10-22T13:44:30;98655.16;;;19.34;100.00
18678;BME280;9469;51.114;13.914;2022-10-22T13:49:35;98658.00;;;19.42;100.00
18678;BME280;9469;51.114;13.914;2022-10-22T13:54:46;98664.72;;;19.32;100.00
18678;BME280;9469;51.114;13.914;2022-10-22T13:59:51;98664.38;;;19.33;100.00
18678;BME280;9469;51.114;13.914;2022-10-22T14:04:56;98665.75;;;19.05;100.00
18678;BME280;9469;51.114;13.914;2022-10-22T14:10:13;98668.09;;;18.49;100.00
18678;BME280;9469;51.114;13.914;2022-10-22T14:15:20;98675.03;;;18.50;100.00
18678;BME280;9469;51.114;13.914;2022-10-22T14:20:27;98670.09;;;18.71;100.00
18678;BME280;9469;51.114;13.914;2022-10-22T14:25:38;98679.59;;;18.65;100.00
18678;BME280;9469;51.114;13.914;2022-10-22T14:30:44;98681.28;;;18.73;100.00
18678;BME280;9469;51.114;13.914;2022-10-22T14:35:50;98674.28;;;18.49;100.00
18678;BME280;9469;51.114;13.914;2022-10-22T14:40:58;98677.72;;;18.34;100.00
18678;BME280;9469;51.114;13.914;2022-10-22T14:46:03;98684.31;;;18.18;100.00
18678;BME280;9469;51.114;13.914;2022-10-22T14:51:11;98690.13;;;18.54;100.00
18678;BME280;9469;51.114;13.914;2022-10-22T14:56:19;98687.53;;;18.58;100.00
18678;BME280;9469;51.114;13.914;2022-10-22T15:01:24;98696.63;;;18.03;100.00
18678;BME280;9469;51.114;13.914;2022-10-22T15:06:31;98698.91;;;17.85;100.00
18678;BME280;9469;51.114;13.914;2022-10-22T15:11:39;98706.38;;;17.76;100.00
18678;BME280;9469;51.114;13.914;2022-10-22T15:16:44;98700.22;;;17.48;100.00
18678;BME280;9469;51.114;13.914;2022-10-22T15:21:48;98714.09;;;17.93;100.00
18678;BME280;9469;51.114;13.914;2022-10-22T15:26:56;98710.63;;;17.93;100.00
18678;BME280;9469;51.114;13.914;2022-10-22T15:32:01;98721.66;;;17.72;100.00
18678;BME280;9469;51.114;13.914;2022-10-22T15:37:08;98722.94;;;17.35;100.00
18678;BME280;9469;51.114;13.914;2022-10-22T15:42:16;98729.09;;;17.08;100.00
18678;BME280;9469;51.114;13.914;2022-10-22T15:47:22;98739.19;;;16.59;100.00
18678;BME280;9469;51.114;13.914;2022-10-22T15:52:30;98742.75;;;16.63;100.00
18678;BME280;9469;51.114;13.914;2022-10-22T15:57:38;98746.97;;;16.88;100.00
18678;BME280;9469;51.114;13.914;2022-10-22T16:02:43;98756.28;;;16.79;100.00
18678;BME280;9469;51.114;13.914;2022-10-22T16:07:48;98755.09;;;16.28;100.00
18678;BME280;9469;51.114;13.914;2022-10-22T16:12:59;98759.06;;;15.98;100.00
18678;BME280;9469;51.114;13.914;2022-10-22T16:18:04;98764.47;;;15.53;100.00
18678;BME280;9469;51.114;13.914;2022-10-22T16:23:09;98760.09;;;15.28;100.00
18678;BME280;9469;51.114;13.914;2022-10-22T16:28:17;98776.97;;;15.49;100.00
18678;BME280;9469;51.114;13.914;2022-10-22T16:33:22;98778.84;;;15.28;100.00
18678;BME280;9469;51.114;13.914;2022-10-22T16:38:27;98786.25;;;15.10;100.00
18678;BME280;9469;51.114;13.914;2022-10-22T16:43:35;98788.13;;;15.09;100.00
18678;BME280;9469;51.114;13.914;2022-10-22T16:48:43;98801.41;;;15.06;100.00
18678;BME280;9469;51.114;13.914;2022-10-22T16:53:50;98809.44;;;14.56;100.00
18678;BME280;9469;51.114;13.914;2022-10-22T16:58:58;98813.00;;;14.40;100.00
18678;BME280;9469;51.114;13.914;2022-10-22T17:04:03;98820.22;;;14.39;100.00
18678;BME280;9469;51.114;13.914;2022-10-22T17:09:08;98828.59;;;14.20;100.00
18678;BME280;9469;51.114;13.914;2022-10-22T17:14:15;98823.44;;;14.07;100.00
18678;BME280;9469;51.114;13.914;2022-10-22T17:19:20;98829.50;;;13.95;100.00
18678;BME280;9469;51.114;13.914;2022-10-22T17:24:26;98836.84;;;13.98;100.00
18678;BME280;9469;51.114;13.914;2022-10-22T17:29:34;98851.66;;;14.04;100.00
18678;BME280;9469;51.114;13.914;2022-10-22T17:34:40;98864.84;;;14.18;100.00
18678;BME280;9469;51.114;13.914;2022-10-22T17:39:45;98868.22;;;14.27;100.00
18678;BME280;9469;51.114;13.914;2022-10-22T17:44:52;98872.94;;;14.47;100.00
18678;BME280;9469;51.114;13.914;2022-10-22T17:49:57;98873.25;;;14.46;100.00
18678;BME280;9469;51.114;13.914;2022-10-22T17:55:03;98889.59;;;14.53;100.00
18678;BME280;9469;51.114;13.914;2022-10-22T18:00:12;98894.00;;;14.57;100.00
18678;BME280;9469;51.114;13.914;2022-10-22T18:05:38;98894.66;;;14.46;100.00
18678;BME280;9469;51.114;13.914;2022-10-22T18:10:45;98898.41;;;14.53;100.00
18678;BME280;9469;51.114;13.914;2022-10-22T18:15:55;98897.44;;;13.34;100.00
18678;BME280;9469;51.114;13.914;2022-10-22T18:21:01;98907.81;;;13.27;100.00
18678;BME280;9469;51.114;13.914;2022-10-22T18:26:06;98899.59;;;13.07;100.00
18678;BME280;9469;51.114;13.914;2022-10-22T18:31:16;98908.75;;;12.75;100.00
18678;BME280;9469;51.114;13.914;2022-10-22T18:36:23;98908.63;;;12.80;100.00
18678;BME280;9469;51.114;13.914;2022-10-22T18:41:29;98915.75;;;12.62;100.00
18678;BME280;9469;51.114;13.914;2022-10-22T18:46:37;98919.22;;;12.63;100.00
18678;BME280;9469;51.114;13.914;2022-10-22T18:51:43;98918.81;;;13.34;100.00
18678;BME280;9469;51.114;13.914;2022-10-22T18:56:52;98917.28;;;13.68;100.00
18678;BME280;9469;51.114;13.914;2022-10-22T19:02:05;98917.91;;;13.82;100.00
18678;BME280;9469;51.114;13.914;2022-10-22T19:07:11;98911.47;;;13.74;100.00
18678;BME280;9469;51.114;13.914;2022-10-22T19:12:16;98919.78;;;13.47;100.00
18678;BME280;9469;51.114;13.914;2022-10-22T19:17:24;98919.47;;;13.83;100.00
18678;BME280;9469;51.114;13.914;2022-10-22T19:22:30;98915.69;;;13.84;100.00
18678;BME280;9469;51.114;13.914;2022-10-22T19:27:35;98907.97;;;13.48;100.00
18678;BME280;9469;51.114;13.914;2022-10-22T19:32:43;98921.81;;;13.76;100.00
18678;BME280;9469;51.114;13.914;2022-10-22T19:37:49;98925.75;;;13.70;100.00
18678;BME280;9469;51.114;13.914;2022-10-22T19:42:54;98931.13;;;13.61;100.00
18678;BME280;9469;51.114;13.914;2022-10-22T19:48:05;98932.06;;;13.56;100.00
18678;BME280;9469;51.114;13.914;2022-10-22T19:53:11;98938.63;;;13.33;100.00
18678;BME280;9469;51.114;13.914;2022-10-22T19:58:15;98946.50;;;13.38;100.00
18678;BME280;9469;51.114;13.914;2022-10-22T20:03:23;98947.75;;;13.49;100.00
18678;BME280;9469;51.114;13.914;2022-10-22T20:08:27;98943.22;;;13.58;100.00
18678;BME280;9469;51.114;13.914;2022-10-22T20:13:34;98949.91;;;13.22;100.00
18678;BME280;9469;51.114;13.914;2022-10-22T20:19:03;98955.75;;;13.32;100.00
18678;BME280;9469;51.114;13.914;2022-10-22T20:24:10;98958.59;;;13.44;100.00
18678;BME280;9469;51.114;13.914;2022-10-22T20:29:15;98958.13;;;13.51;100.00
18678;BME280;9469;51.114;13.914;2022-10-22T20:34:24;98959.25;;;13.76;100.00
18678;BME280;9469;51.114;13.914;2022-10-22T20:39:30;98963.19;;;13.78;100.00
18678;BME280;9469;51.114;13.914;2022-10-22T20:44:35;98968.72;;;13.82;100.00
18678;BME280;9469;51.114;13.914;2022-10-22T20:49:42;98985.03;;;13.89;100.00
18678;BME280;9469;51.114;13.914;2022-10-22T20:54:47;98980.81;;;13.88;100.00
18678;BME280;9469;51.114;13.914;2022-10-22T20:59:52;98985.53;;;13.74;100.00
18678;BME280;9469;51.114;13.914;2022-10-22T21:05:00;98982.38;;;13.63;100.00
18678;BME280;9469;51.114;13.914;2022-10-22T21:10:06;98985.34;;;13.53;100.00
18678;BME280;9469;51.114;13.914;2022-10-22T21:15:12;98984.06;;;13.03;100.00
18678;BME280;9469;51.114;13.914;2022-10-22T21:20:19;98987.03;;;12.92;100.00
18678;BME280;9469;51.114;13.914;2022-10-22T21:25:25;98991.34;;;12.49;100.00
18678;BME280;9469;51.114;13.914;2022-10-22T21:30:31;98988.09;;;12.52;100.00
18678;BME280;9469;51.114;13.914;2022-10-22T21:35:38;98987.53;;;12.42;100.00
18678;BME280;9469;51.114;13.914;2022-10-22T21:40:43;98991.06;;;12.06;100.00
18678;BME280;9469;51.114;13.914;2022-10-22T21:45:48;98999.91;;;11.93;100.00
18678;BME280;9469;51.114;13.914;2022-10-22T21:50:56;99001.72;;;11.84;100.00
18678;BME280;9469;51.114;13.914;2022-10-22T21:56:01;99002.41;;;11.76;100.00
18678;BME280;9469;51.114;13.914;2022-10-22T22:01:06;99009.91;;;11.61;100.00
18678;BME280;9469;51.114;13.914;2022-10-22T22:06:14;99001.75;;;11.57;100.00
18678;BME280;9469;51.114;13.914;2022-10-22T22:11:24;99009.16;;;11.60;100.00
18678;BME280;9469;51.114;13.914;2022-10-22T22:16:31;99015.25;;;11.61;100.00
18678;BME280;9469;51.114;13.914;2022-10-22T22:21:39;99008.16;;;11.56;100.00
18678;BME280;9469;51.114;13.914;2022-10-22T22:26:45;99005.00;;;11.54;100.00
18678;BME280;9469;51.114;13.914;2022-10-22T22:31:49;99004.03;;;11.50;100.00
18678;BME280;9469;51.114;13.914;2022-10-22T22:36:57;98995.66;;;11.16;100.00
18678;BME280;9469;51.114;13.914;2022-10-22T22:42:02;99006.13;;;11.12;100.00
18678;BME280;9469;51.114;13.914;2022-10-22T22:47:07;98997.91;;;11.09;100.00
18678;BME280;9469;51.114;13.914;2022-10-22T22:52:14;99006.13;;;11.26;100.00
18678;BME280;9469;51.114;13.914;2022-10-22T22:57:19;99001.06;;;11.11;100.00
18678;BME280;9469;51.114;13.914;2022-10-22T23:02:24;99009.47;;;11.04;100.00
18678;BME280;9469;51.114;13.914;2022-10-22T23:07:31;99003.06;;;10.92;100.00
18678;BME280;9469;51.114;13.914;2022-10-22T23:12:36;99000.16;;;10.74;100.00
18678;BME280;9469;51.114;13.914;2022-10-22T23:17:42;98988.75;;;10.74;100.00
18678;BME280;9469;51.114;13.914;2022-10-22T23:22:49;98999.25;;;10.65;100.00
18678;BME280;9469;51.114;13.914;2022-10-22T23:27:54;98987.41;;;10.44;100.00
18678;BME280;9469;51.114;13.914;2022-10-22T23:33:00;98987.69;;;10.43;100.00
18678;BME280;9469;51.114;13.914;2022-10-22T23:38:08;98995.31;;;10.63;100.00
18678;BME280;9469;51.114;13.914;2022-10-22T23:43:13;98997.06;;;10.54;100.00
18678;BME280;9469;51.114;13.914;2022-10-22T23:48:18;99000.81;;;10.21;100.00
18678;BME280;9469;51.114;13.914;2022-10-22T23:53:26;99003.63;;;10.43;100.00
18678;BME280;9469;51.114;13.914;2022-10-22T23:58:30;99007.59;;;10.45;100.00
